createdAt,value
2017-08-26T00:00:02.389Z,20.40
2017-08-26T00:02:35.553Z,20.40
2017-08-26T00:05:03.061Z,20.40
2017-08-26T00:07:30.582Z,20.40
2017-08-26T00:09:58.068Z,20.40
2017-08-26T00:12:25.552Z,20.40
2017-08-26T00:14:53.044Z,20.30
2017-08-26T00:17:20.544Z,20.20
2017-08-26T00:19:48.019Z,20.20
2017-08-26T00:22:15.523Z,20.20
2017-08-26T00:24:43.028Z,20.20
2017-08-26T00:27:11.994Z,20.10
2017-08-26T00:29:39.490Z,20.10
2017-08-26T00:32:07.003Z,20.20
2017-08-26T00:34:34.504Z,20.20
2017-08-26T00:37:02.019Z,20.10
2017-08-26T00:39:29.514Z,20.20
2017-08-26T00:41:57.024Z,20.10
2017-08-26T00:44:24.530Z,20.10
2017-08-26T00:46:52.019Z,20.10
2017-08-26T00:49:26.527Z,20.00
2017-08-26T00:51:54.027Z,20.00
2017-08-26T00:54:21.520Z,20.00
2017-08-26T00:56:49.021Z,20.00
2017-08-26T00:59:16.514Z,20.00
2017-08-26T01:01:44.025Z,20.00
2017-08-26T01:04:11.531Z,19.90
2017-08-26T01:06:39.027Z,19.90
2017-08-26T01:09:06.529Z,19.90
2017-08-26T01:11:34.792Z,19.90
2017-08-26T01:14:02.298Z,19.90
2017-08-26T01:16:29.799Z,19.80
2017-08-26T01:18:57.306Z,19.80
2017-08-26T01:21:25.983Z,19.80
2017-08-26T01:23:53.506Z,19.80
2017-08-26T01:26:21.008Z,19.80
2017-08-26T01:28:48.507Z,19.70
2017-08-26T01:31:16.041Z,19.80
2017-08-26T01:33:43.528Z,19.70
2017-08-26T01:36:11.051Z,19.70
2017-08-26T01:38:38.553Z,19.70
2017-08-26T01:41:06.081Z,19.60
2017-08-26T01:43:33.592Z,19.70
2017-08-26T01:46:01.871Z,19.70
2017-08-26T01:48:30.113Z,19.70
2017-08-26T01:50:57.614Z,19.70
2017-08-26T01:53:25.106Z,19.60
2017-08-26T01:55:52.624Z,19.60
2017-08-26T01:58:20.103Z,19.60
2017-08-26T02:00:47.601Z,19.60
2017-08-26T02:03:15.091Z,19.60
2017-08-26T02:05:43.377Z,19.50
2017-08-26T02:08:10.857Z,19.50
2017-08-26T02:10:38.362Z,19.50
2017-08-26T02:13:05.854Z,19.50
2017-08-26T02:15:33.351Z,19.50
2017-08-26T02:18:00.841Z,19.40
2017-08-26T02:20:28.367Z,19.40
2017-08-26T02:22:55.854Z,19.40
2017-08-26T02:25:23.342Z,19.40
2017-08-26T02:27:50.841Z,19.40
2017-08-26T02:30:18.358Z,19.40
2017-08-26T02:32:45.865Z,19.40
2017-08-26T02:35:13.610Z,19.40
2017-08-26T02:37:41.106Z,19.40
2017-08-26T02:40:09.248Z,19.40
2017-08-26T02:42:36.755Z,19.40
2017-08-26T02:45:04.235Z,19.40
2017-08-26T02:47:32.500Z,19.30
2017-08-26T02:50:00.758Z,19.30
2017-08-26T02:52:28.269Z,19.30
2017-08-26T02:54:55.750Z,19.30
2017-08-26T02:57:23.238Z,19.30
2017-08-26T02:59:50.728Z,19.30
2017-08-26T03:02:19.166Z,19.30
2017-08-26T03:04:46.668Z,19.20
2017-08-26T03:07:14.168Z,19.20
2017-08-26T03:09:41.646Z,19.20
2017-08-26T03:12:09.139Z,19.20
2017-08-26T03:14:36.632Z,19.20
2017-08-26T03:17:04.150Z,19.20
2017-08-26T03:19:31.634Z,19.10
2017-08-26T03:21:59.142Z,19.10
2017-08-26T03:24:26.654Z,19.20
2017-08-26T03:26:54.153Z,19.10
2017-08-26T03:29:21.644Z,19.20
2017-08-26T03:31:49.158Z,19.10
2017-08-26T03:34:16.676Z,19.10
2017-08-26T03:36:44.175Z,19.10
2017-08-26T03:39:11.779Z,19.10
2017-08-26T03:41:39.280Z,19.10
2017-08-26T03:44:06.791Z,19.10
2017-08-26T03:46:34.303Z,19.10
2017-08-26T03:49:01.815Z,19.00
2017-08-26T03:51:29.311Z,19.00
2017-08-26T03:53:56.805Z,19.10
2017-08-26T03:56:24.298Z,19.00
2017-08-26T03:58:51.806Z,19.00
2017-08-26T04:01:19.305Z,19.00
2017-08-26T04:03:46.808Z,19.00
2017-08-26T04:06:14.320Z,18.90
2017-08-26T04:08:41.819Z,18.90
2017-08-26T04:11:09.345Z,18.90
2017-08-26T04:13:36.845Z,18.90
2017-08-26T04:16:04.335Z,18.90
2017-08-26T04:18:31.833Z,18.90
2017-08-26T04:20:59.336Z,18.80
2017-08-26T04:23:26.838Z,18.80
2017-08-26T04:25:54.346Z,18.80
2017-08-26T04:28:21.847Z,18.80
2017-08-26T04:30:49.345Z,18.80
2017-08-26T04:33:16.844Z,18.80
2017-08-26T04:35:45.127Z,18.80
2017-08-26T04:38:13.260Z,18.80
2017-08-26T04:40:40.757Z,18.80
2017-08-26T04:43:08.233Z,18.80
2017-08-26T04:45:35.739Z,18.90
2017-08-26T04:48:03.247Z,18.80
2017-08-26T04:50:30.769Z,18.80
2017-08-26T04:52:58.278Z,18.80
2017-08-26T04:55:25.804Z,18.80
2017-08-26T04:57:59.710Z,18.80
2017-08-26T05:00:28.011Z,18.80
2017-08-26T05:02:55.504Z,18.80
2017-08-26T05:05:23.007Z,18.80
2017-08-26T05:07:50.532Z,18.90
2017-08-26T05:10:18.026Z,18.90
2017-08-26T05:12:45.538Z,18.90
2017-08-26T05:15:13.026Z,19.00
2017-08-26T05:17:40.771Z,19.00
2017-08-26T05:20:08.273Z,19.00
2017-08-26T05:22:35.792Z,19.00
2017-08-26T05:25:03.286Z,19.00
2017-08-26T05:27:30.794Z,19.10
2017-08-26T05:29:58.278Z,19.10
2017-08-26T05:32:25.796Z,19.10
2017-08-26T05:34:53.278Z,19.20
2017-08-26T05:37:20.790Z,19.20
2017-08-26T05:39:48.304Z,19.30
2017-08-26T05:42:15.814Z,19.40
2017-08-26T05:44:43.320Z,19.50
2017-08-26T05:47:10.815Z,19.60
2017-08-26T05:49:38.311Z,19.70
2017-08-26T05:52:05.792Z,19.80
2017-08-26T05:54:33.293Z,20.00
2017-08-26T05:57:00.771Z,20.10
2017-08-26T05:59:28.266Z,20.20
2017-08-26T06:01:55.752Z,20.30
2017-08-26T06:04:24.032Z,20.50
2017-08-26T06:06:51.530Z,20.50
2017-08-26T06:09:19.042Z,20.60
2017-08-26T06:11:46.549Z,20.60
2017-08-26T06:14:14.065Z,20.70
2017-08-26T06:16:42.314Z,20.80
2017-08-26T06:19:09.814Z,20.80
2017-08-26T06:21:37.316Z,20.80
2017-08-26T06:24:04.829Z,20.90
2017-08-26T06:26:32.327Z,21.00
2017-08-26T06:28:59.814Z,21.00
2017-08-26T06:31:27.344Z,21.10
2017-08-26T06:33:54.834Z,21.20
2017-08-26T06:36:22.314Z,21.30
2017-08-26T06:38:56.032Z,21.40
2017-08-26T06:41:23.533Z,21.50
2017-08-26T06:43:51.036Z,21.60
2017-08-26T06:46:18.543Z,21.70
2017-08-26T06:48:46.020Z,21.80
2017-08-26T06:51:13.516Z,21.90
2017-08-26T06:53:42.883Z,22.00
2017-08-26T06:56:10.400Z,22.10
2017-08-26T06:58:37.890Z,22.10
2017-08-26T07:01:11.237Z,22.20
2017-08-26T07:03:39.503Z,22.30
2017-08-26T07:06:07.019Z,22.30
2017-08-26T07:08:34.510Z,22.30
2017-08-26T07:11:02.025Z,22.40
2017-08-26T07:13:29.527Z,22.40
2017-08-26T07:15:57.823Z,22.60
2017-08-26T07:18:25.307Z,22.60
2017-08-26T07:20:52.817Z,22.70
2017-08-26T07:23:21.121Z,22.80
2017-08-26T07:25:48.629Z,22.80
2017-08-26T07:28:16.115Z,23.10
2017-08-26T07:30:43.608Z,23.20
2017-08-26T07:33:11.094Z,23.30
2017-08-26T07:35:38.626Z,23.40
2017-08-26T07:38:06.113Z,23.40
2017-08-26T07:40:33.608Z,23.30
2017-08-26T07:43:01.877Z,23.30
2017-08-26T07:45:30.146Z,23.40
2017-08-26T07:47:57.664Z,23.30
2017-08-26T07:50:25.143Z,23.40
2017-08-26T07:52:52.633Z,23.30
2017-08-26T07:55:20.897Z,23.10
2017-08-26T07:57:49.151Z,23.10
2017-08-26T08:00:16.636Z,23.10
2017-08-26T08:02:44.135Z,23.20
2017-08-26T08:05:11.648Z,23.30
2017-08-26T08:07:39.897Z,23.50
2017-08-26T08:10:07.396Z,23.50
2017-08-26T08:12:34.894Z,23.60
2017-08-26T08:15:02.389Z,23.60
2017-08-26T08:17:29.878Z,23.80
2017-08-26T08:19:57.379Z,23.90
2017-08-26T08:22:24.862Z,24.20
2017-08-26T08:24:52.356Z,24.20
2017-08-26T08:27:26.119Z,24.40
2017-08-26T08:29:53.618Z,24.60
2017-08-26T08:32:21.129Z,24.50
2017-08-26T08:34:48.635Z,24.60
2017-08-26T08:37:16.135Z,24.60
2017-08-26T08:39:43.632Z,24.80
2017-08-26T08:42:11.108Z,24.80
2017-08-26T08:44:38.602Z,24.90
2017-08-26T08:47:06.114Z,25.00
2017-08-26T08:49:33.618Z,25.00
2017-08-26T08:52:01.088Z,25.10
2017-08-26T08:54:28.582Z,25.10
2017-08-26T08:56:56.084Z,25.10
2017-08-26T08:59:23.580Z,25.00
2017-08-26T09:01:51.087Z,25.10
2017-08-26T09:04:18.572Z,25.10
2017-08-26T09:06:46.067Z,25.10
2017-08-26T09:09:14.306Z,25.30
2017-08-26T09:11:41.821Z,25.30
2017-08-26T09:14:09.303Z,25.20
2017-08-26T09:16:36.815Z,25.20
2017-08-26T09:19:04.305Z,25.30
2017-08-26T09:21:31.814Z,25.40
2017-08-26T09:24:00.222Z,25.40
2017-08-26T09:26:27.720Z,25.40
2017-08-26T09:29:01.900Z,25.40
2017-08-26T09:31:30.166Z,25.30
2017-08-26T09:33:57.697Z,25.20
2017-08-26T09:36:25.214Z,25.20
2017-08-26T09:38:52.699Z,25.20
2017-08-26T09:41:20.206Z,25.40
2017-08-26T09:43:47.679Z,25.50
2017-08-26T09:46:15.164Z,25.60
2017-08-26T09:48:42.679Z,25.60
2017-08-26T09:51:10.181Z,25.70
2017-08-26T09:53:37.671Z,25.80
2017-08-26T09:56:05.157Z,25.90
2017-08-26T09:58:34.361Z,26.10
2017-08-26T10:01:01.841Z,26.10
2017-08-26T10:03:29.329Z,26.20
2017-08-26T10:05:56.834Z,26.20
2017-08-26T10:08:24.326Z,26.30
2017-08-26T10:10:51.803Z,26.40
2017-08-26T10:13:19.312Z,26.50
2017-08-26T10:15:47.135Z,26.50
2017-08-26T10:18:14.636Z,26.70
2017-08-26T10:20:42.105Z,26.80
2017-08-26T10:23:09.590Z,26.80
2017-08-26T10:25:37.079Z,26.90
2017-08-26T10:28:04.605Z,27.00
2017-08-26T10:30:32.092Z,26.90
2017-08-26T10:32:59.579Z,27.00
2017-08-26T10:35:27.080Z,27.10
2017-08-26T10:37:54.574Z,27.20
2017-08-26T10:40:22.072Z,27.30
2017-08-26T10:42:49.571Z,27.40
2017-08-26T10:45:17.089Z,27.50
2017-08-26T10:47:44.575Z,27.60
2017-08-26T10:50:12.082Z,27.60
2017-08-26T10:52:39.566Z,27.60
2017-08-26T10:55:07.090Z,27.80
2017-08-26T10:57:34.574Z,27.80
2017-08-26T11:00:02.061Z,27.70
2017-08-26T11:02:29.567Z,27.70
2017-08-26T11:04:57.837Z,27.60
2017-08-26T11:07:25.327Z,27.60
2017-08-26T11:09:52.804Z,27.50
2017-08-26T11:12:26.784Z,27.40
2017-08-26T11:14:54.276Z,27.40
2017-08-26T11:17:21.782Z,27.50
2017-08-26T11:19:49.263Z,27.50
2017-08-26T11:22:16.756Z,27.50
2017-08-26T11:24:44.269Z,27.60
2017-08-26T11:27:11.757Z,27.60
2017-08-26T11:29:39.232Z,27.60
2017-08-26T11:32:06.730Z,27.50
2017-08-26T11:34:34.976Z,27.40
2017-08-26T11:37:02.472Z,27.40
2017-08-26T11:39:29.976Z,27.60
2017-08-26T11:41:57.469Z,27.70
2017-08-26T11:44:24.971Z,27.80
2017-08-26T11:46:52.461Z,27.80
2017-08-26T11:49:26.521Z,27.90
2017-08-26T11:51:54.026Z,28.00
2017-08-26T11:54:21.520Z,28.20
2017-08-26T11:56:49.029Z,28.30
2017-08-26T11:59:16.507Z,28.40
2017-08-26T12:01:44.020Z,28.50
2017-08-26T12:04:12.304Z,28.80
2017-08-26T12:06:39.885Z,28.70
2017-08-26T12:09:07.375Z,28.60
2017-08-26T12:11:34.891Z,28.70
2017-08-26T12:14:02.371Z,28.80
2017-08-26T12:16:29.853Z,28.90
2017-08-26T12:18:57.339Z,28.90
2017-08-26T12:21:24.832Z,29.10
2017-08-26T12:23:52.339Z,29.30
2017-08-26T12:26:19.816Z,29.30
2017-08-26T12:28:47.314Z,29.20
2017-08-26T12:31:14.798Z,29.10
2017-08-26T12:33:42.292Z,28.90
2017-08-26T12:36:09.788Z,28.90
2017-08-26T12:38:37.288Z,28.90
2017-08-26T12:41:04.772Z,28.90
2017-08-26T12:43:32.275Z,28.90
2017-08-26T12:45:59.771Z,28.80
2017-08-26T12:48:27.269Z,28.70
2017-08-26T12:50:54.767Z,28.80
2017-08-26T12:53:22.296Z,28.80
2017-08-26T12:55:49.794Z,28.70
2017-08-26T12:58:18.043Z,28.70
2017-08-26T13:00:45.543Z,28.70
2017-08-26T13:03:13.031Z,28.80
2017-08-26T13:05:40.534Z,28.80
2017-08-26T13:08:08.015Z,28.80
2017-08-26T13:10:35.515Z,28.90
2017-08-26T13:13:03.007Z,28.90
2017-08-26T13:15:30.510Z,28.80
2017-08-26T13:17:57.994Z,28.90
2017-08-26T13:20:25.491Z,29.00
2017-08-26T13:22:52.977Z,28.90
2017-08-26T13:25:20.471Z,28.90
2017-08-26T13:27:47.937Z,29.00
2017-08-26T13:30:15.434Z,29.00
2017-08-26T13:32:42.916Z,29.00
2017-08-26T13:35:10.428Z,28.90
2017-08-26T13:37:37.925Z,28.90
2017-08-26T13:40:05.434Z,28.90
2017-08-26T13:42:32.920Z,29.00
2017-08-26T13:45:01.252Z,29.10
2017-08-26T13:47:28.754Z,29.10
2017-08-26T13:49:56.230Z,29.00
2017-08-26T13:52:24.273Z,29.00
2017-08-26T13:54:51.751Z,29.00
2017-08-26T13:57:19.259Z,29.10
2017-08-26T13:59:46.756Z,29.00
2017-08-26T14:02:14.248Z,29.10
2017-08-26T14:04:41.733Z,29.10
2017-08-26T14:07:09.264Z,29.00
2017-08-26T14:09:36.759Z,29.00
2017-08-26T14:12:04.255Z,29.00
2017-08-26T14:14:31.738Z,29.20
2017-08-26T14:16:59.240Z,29.30
2017-08-26T14:19:26.730Z,29.30
2017-08-26T14:21:54.229Z,29.40
2017-08-26T14:24:21.727Z,29.40
2017-08-26T14:26:49.231Z,29.40
2017-08-26T14:29:16.714Z,29.20
2017-08-26T14:31:44.210Z,29.10
2017-08-26T14:34:11.679Z,29.20
2017-08-26T14:36:39.203Z,29.20
2017-08-26T14:39:06.671Z,29.30
2017-08-26T14:41:34.141Z,29.30
2017-08-26T14:44:02.410Z,29.40
2017-08-26T14:46:29.891Z,29.30
2017-08-26T14:48:57.392Z,29.40
2017-08-26T14:51:24.895Z,29.30
2017-08-26T14:53:53.159Z,29.40
2017-08-26T14:56:20.644Z,29.30
2017-08-26T14:58:48.142Z,29.30
2017-08-26T15:01:15.631Z,29.30
2017-08-26T15:03:43.208Z,29.20
2017-08-26T15:06:11.796Z,29.20
2017-08-26T15:08:39.293Z,29.20
2017-08-26T15:11:06.785Z,29.20
2017-08-26T15:13:34.291Z,29.20
2017-08-26T15:16:01.772Z,29.20
2017-08-26T15:18:29.248Z,29.10
2017-08-26T15:20:56.722Z,29.20
2017-08-26T15:23:24.239Z,29.10
2017-08-26T15:25:51.734Z,29.10
2017-08-26T15:28:19.208Z,29.10
2017-08-26T15:30:46.711Z,29.10
2017-08-26T15:33:14.186Z,29.10
2017-08-26T15:35:41.678Z,29.10
2017-08-26T15:38:09.926Z,29.10
2017-08-26T15:40:37.414Z,29.00
2017-08-26T15:43:04.882Z,29.10
2017-08-26T15:45:33.151Z,29.20
2017-08-26T15:48:01.419Z,29.20
2017-08-26T15:50:28.910Z,29.20
2017-08-26T15:52:56.415Z,29.20
2017-08-26T15:55:23.903Z,29.20
2017-08-26T15:57:51.403Z,29.20
2017-08-26T16:00:18.895Z,29.10
2017-08-26T16:02:46.419Z,29.20
2017-08-26T16:05:13.969Z,29.20
2017-08-26T16:07:41.460Z,29.10
2017-08-26T16:10:08.951Z,29.00
2017-08-26T16:12:36.434Z,29.10
2017-08-26T16:15:03.926Z,29.10
2017-08-26T16:17:31.411Z,29.10
2017-08-26T16:19:58.902Z,29.30
2017-08-26T16:22:26.381Z,29.40
2017-08-26T16:24:53.863Z,29.40
2017-08-26T16:27:21.378Z,29.50
2017-08-26T16:29:48.890Z,29.60
2017-08-26T16:32:16.374Z,29.60
2017-08-26T16:34:43.884Z,29.60
2017-08-26T16:37:11.371Z,29.70
2017-08-26T16:39:38.834Z,29.80
2017-08-26T16:42:06.322Z,29.90
2017-08-26T16:44:33.802Z,30.20
2017-08-26T16:47:01.318Z,30.30
2017-08-26T16:49:29.575Z,30.90
2017-08-26T16:51:57.079Z,30.90
2017-08-26T16:54:25.187Z,31.00
2017-08-26T16:56:52.687Z,31.20
2017-08-26T16:59:20.174Z,31.20
2017-08-26T17:01:47.675Z,31.10
2017-08-26T17:04:15.162Z,31.30
2017-08-26T17:06:43.439Z,31.30
2017-08-26T17:09:11.697Z,31.20
2017-08-26T17:11:39.198Z,31.20
2017-08-26T17:14:06.678Z,30.80
2017-08-26T17:16:34.321Z,30.30
2017-08-26T17:19:01.805Z,29.90
2017-08-26T17:21:29.311Z,29.30
2017-08-26T17:23:56.799Z,28.90
2017-08-26T17:26:24.319Z,28.50
2017-08-26T17:28:51.806Z,28.10
2017-08-26T17:31:19.292Z,27.90
2017-08-26T17:33:46.803Z,27.60
2017-08-26T17:36:14.281Z,27.40
2017-08-26T17:38:42.378Z,27.20
2017-08-26T17:41:09.892Z,27.10
2017-08-26T17:43:38.160Z,26.80
2017-08-26T17:46:05.654Z,26.80
2017-08-26T17:48:33.179Z,26.70
2017-08-26T17:51:00.670Z,26.60
2017-08-26T17:53:28.165Z,26.50
2017-08-26T17:55:55.647Z,26.40
2017-08-26T17:58:23.136Z,26.30
2017-08-26T18:00:52.078Z,26.10
2017-08-26T18:03:19.583Z,26.10
2017-08-26T18:05:47.071Z,26.00
2017-08-26T18:08:14.568Z,25.90
2017-08-26T18:10:42.061Z,25.90
2017-08-26T18:13:09.569Z,25.80
2017-08-26T18:15:37.046Z,25.70
2017-08-26T18:18:04.542Z,25.60
2017-08-26T18:20:32.057Z,25.50
2017-08-26T18:23:00.325Z,25.40
2017-08-26T18:25:27.857Z,25.30
2017-08-26T18:27:55.374Z,25.20
2017-08-26T18:30:22.870Z,25.10
2017-08-26T18:32:50.358Z,25.10
2017-08-26T18:35:18.025Z,25.00
2017-08-26T18:37:45.512Z,24.90
2017-08-26T18:40:13.027Z,24.80
2017-08-26T18:42:40.518Z,24.70
2017-08-26T18:45:11.091Z,24.60
2017-08-26T18:47:38.599Z,24.60
2017-08-26T18:50:06.109Z,24.50
2017-08-26T18:52:33.598Z,24.50
2017-08-26T18:55:01.113Z,24.50
2017-08-26T18:57:28.601Z,24.50
2017-08-26T18:59:56.194Z,24.50
2017-08-26T19:02:23.693Z,24.40
2017-08-26T19:04:51.183Z,24.40
2017-08-26T19:07:18.680Z,24.40
2017-08-26T19:09:46.942Z,24.30
2017-08-26T19:12:14.436Z,24.30
2017-08-26T19:14:41.960Z,24.20
2017-08-26T19:17:10.211Z,24.20
2017-08-26T19:19:37.708Z,24.20
2017-08-26T19:22:05.210Z,24.20
2017-08-26T19:24:32.703Z,24.10
2017-08-26T19:27:00.205Z,24.10
2017-08-26T19:29:27.709Z,24.00
2017-08-26T19:31:55.226Z,24.00
2017-08-26T19:34:22.731Z,23.90
2017-08-26T19:36:50.239Z,23.90
2017-08-26T19:39:17.735Z,23.90
2017-08-26T19:41:45.234Z,23.90
2017-08-26T19:44:12.725Z,23.80
2017-08-26T19:46:40.229Z,23.70
2017-08-26T19:49:08.475Z,23.70
2017-08-26T19:51:36.412Z,23.70
2017-08-26T19:54:03.909Z,23.70
2017-08-26T19:56:31.423Z,23.70
2017-08-26T19:58:58.924Z,23.70
2017-08-26T20:01:26.417Z,23.60
2017-08-26T20:03:53.913Z,23.60
2017-08-26T20:06:21.418Z,23.60
2017-08-26T20:08:48.899Z,23.50
2017-08-26T20:11:16.398Z,23.50
2017-08-26T20:13:43.924Z,23.50
2017-08-26T20:16:11.881Z,23.50
2017-08-26T20:18:39.378Z,23.40
2017-08-26T20:21:06.861Z,23.40
2017-08-26T20:36:31.648Z,23.10
2017-08-26T20:38:59.126Z,23.10
2017-08-26T20:41:26.625Z,23.00
2017-08-26T20:43:54.124Z,23.20
2017-08-26T20:46:21.617Z,23.20
2017-08-26T20:48:49.135Z,23.10
2017-08-26T20:51:16.643Z,23.10
2017-08-26T20:53:44.152Z,23.20
2017-08-26T20:56:11.640Z,23.10
2017-08-26T20:58:39.132Z,23.10
2017-08-26T21:01:06.632Z,23.10
2017-08-26T21:03:34.124Z,23.00
2017-08-26T21:06:01.643Z,23.00
2017-08-26T21:08:29.118Z,23.00
2017-08-26T21:10:56.624Z,23.00
2017-08-26T21:13:24.115Z,22.90
2017-08-26T21:15:51.603Z,22.80
2017-08-26T21:18:19.326Z,22.70
2017-08-26T21:20:46.826Z,22.70
2017-08-26T21:23:14.377Z,22.70
2017-08-26T21:25:41.895Z,22.60
2017-08-26T21:28:09.390Z,22.60
2017-08-26T21:30:36.905Z,22.70
2017-08-26T21:33:04.395Z,22.70
2017-08-26T21:35:31.940Z,22.80
2017-08-26T21:37:59.432Z,22.80
2017-08-26T21:40:26.921Z,22.80
2017-08-26T21:42:54.418Z,22.80
2017-08-26T21:45:21.898Z,22.70
2017-08-26T21:47:49.403Z,22.70
2017-08-26T21:50:16.883Z,22.80
2017-08-26T21:52:44.377Z,22.80
2017-08-26T21:55:11.855Z,22.70
2017-08-26T21:57:39.338Z,22.70
2017-08-26T22:00:06.820Z,22.70
2017-08-26T22:02:34.330Z,22.70
2017-08-26T22:05:01.814Z,22.60
2017-08-26T22:07:29.332Z,22.70
2017-08-26T22:09:56.822Z,22.60
2017-08-26T22:12:24.319Z,22.60
2017-08-26T22:14:51.812Z,22.50
2017-08-26T22:17:19.301Z,22.40
2017-08-26T22:19:47.746Z,22.40
2017-08-26T22:22:15.242Z,22.20
2017-08-26T22:24:42.734Z,22.20
2017-08-26T22:27:10.247Z,22.10
2017-08-26T22:29:37.730Z,21.90
2017-08-26T22:32:05.276Z,21.80
2017-08-26T22:34:32.772Z,21.80
2017-08-26T22:37:00.256Z,21.80
2017-08-26T22:39:27.767Z,21.80
2017-08-26T22:41:55.253Z,21.90
2017-08-26T22:44:22.751Z,21.80
2017-08-26T22:46:51.086Z,21.80
2017-08-26T22:49:18.580Z,21.80
2017-08-26T22:51:46.063Z,21.80
2017-08-26T22:54:13.545Z,21.80
2017-08-26T22:56:41.028Z,21.70
2017-08-26T22:59:09.288Z,21.70
2017-08-26T23:01:36.775Z,21.70
2017-08-26T23:04:05.030Z,21.60
2017-08-26T23:06:32.528Z,21.60
2017-08-26T23:09:00.045Z,21.50
2017-08-26T23:11:27.540Z,21.50
2017-08-26T23:13:55.054Z,21.50
2017-08-26T23:16:22.534Z,21.50
2017-08-26T23:18:50.031Z,21.40
2017-08-26T23:21:23.315Z,21.40
2017-08-26T23:23:50.789Z,21.40
2017-08-26T23:26:18.292Z,21.40
2017-08-26T23:28:45.783Z,21.30
2017-08-26T23:31:13.277Z,21.30
2017-08-26T23:33:40.781Z,21.40
2017-08-26T23:36:08.282Z,21.40
2017-08-26T23:38:35.775Z,21.40
2017-08-26T23:41:03.281Z,21.40
2017-08-26T23:43:30.770Z,21.40
2017-08-26T23:45:58.276Z,21.40
2017-08-26T23:48:25.764Z,21.40
2017-08-26T23:50:53.269Z,21.40
2017-08-26T23:53:20.750Z,21.30
2017-08-26T23:55:49.030Z,21.30
2017-08-26T23:58:16.582Z,21.30
